createdAt,value
2023-04-28T00:02:08.154Z,10.20
2023-04-28T00:04:40.639Z,11.06
2023-04-28T00:07:10.581Z,10.76
2023-04-28T00:09:40.259Z,11.66
2023-04-28T00:12:10.116Z,11.57
2023-04-28T00:14:40.824Z,12.25
2023-04-28T00:17:10.852Z,11.82
2023-04-28T00:19:43.264Z,11.55
2023-04-28T00:22:12.960Z,11.67
2023-04-28T00:24:42.627Z,11.64
2023-04-28T00:27:12.296Z,11.47
2023-04-28T00:29:42.056Z,11.64
2023-04-28T00:32:13.879Z,11.13
2023-04-28T00:34:46.348Z,11.35
2023-04-28T00:37:16.140Z,10.71
2023-04-28T00:39:47.267Z,10.90
2023-04-28T00:42:17.068Z,11.62
2023-04-28T00:44:46.759Z,11.18
2023-04-28T00:47:16.802Z,11.14
2023-04-28T00:49:50.510Z,11.06
2023-04-28T00:52:20.171Z,11.33
2023-04-28T00:54:50.579Z,11.03
2023-04-28T00:57:20.326Z,11.66
2023-04-28T00:59:50.009Z,11.61
2023-04-28T01:02:23.273Z,11.57
2023-04-28T01:04:56.678Z,11.58
2023-04-28T01:07:26.724Z,11.62
2023-04-28T01:09:56.776Z,12.07
2023-04-28T01:12:31.332Z,11.52
2023-04-28T01:15:02.430Z,10.69
2023-04-28T01:17:34.587Z,11.05
2023-04-28T01:20:07.689Z,12.10
2023-04-28T01:22:37.422Z,11.49
2023-04-28T01:25:09.985Z,11.72
2023-04-28T01:27:40.660Z,12.07
2023-04-28T01:30:11.694Z,11.93
2023-04-28T01:32:42.081Z,11.21
2023-04-28T01:35:11.837Z,12.35
2023-04-28T01:37:41.590Z,12.23
2023-04-28T01:40:14.921Z,12.45
2023-04-28T01:42:44.663Z,12.70
2023-04-28T01:45:14.908Z,12.54
2023-04-28T01:47:45.794Z,12.27
2023-04-28T01:50:16.047Z,12.26
2023-04-28T01:52:45.891Z,11.63
2023-04-28T01:55:18.328Z,11.89
2023-04-28T01:57:48.143Z,12.21
2023-04-28T02:00:18.421Z,12.35
2023-04-28T02:02:54.535Z,12.67
2023-04-28T02:05:24.359Z,12.29
2023-04-28T02:07:55.075Z,12.65
2023-04-28T02:10:27.371Z,13.14
2023-04-28T02:12:57.719Z,13.13
2023-04-28T02:15:27.475Z,12.50
2023-04-28T02:17:57.183Z,12.90
2023-04-28T02:20:27.334Z,13.24
2023-04-28T02:22:57.868Z,13.34
2023-04-28T02:25:31.247Z,13.23
2023-04-28T02:28:00.933Z,13.48
2023-04-28T02:30:30.598Z,13.20
2023-04-28T02:33:00.282Z,12.94
2023-04-28T02:35:29.992Z,12.93
2023-04-28T02:37:59.870Z,13.58
2023-04-28T02:40:32.150Z,14.03
2023-04-28T02:43:01.816Z,13.41
2023-04-28T02:45:31.552Z,13.66
2023-04-28T02:48:03.741Z,13.89
2023-04-28T02:50:33.464Z,13.41
2023-04-28T02:53:03.273Z,13.61
2023-04-28T02:55:35.568Z,14.79
2023-04-28T02:58:05.414Z,14.65
2023-04-28T03:00:35.177Z,13.92
2023-04-28T03:03:05.153Z,14.34
2023-04-28T03:05:34.981Z,14.68
2023-04-28T03:08:04.762Z,15.17
2023-04-28T03:10:37.049Z,14.62
2023-04-28T03:13:07.873Z,14.82
2023-04-28T03:15:38.048Z,15.72
2023-04-28T03:18:08.041Z,15.17
2023-04-28T03:20:38.067Z,15.65
2023-04-28T03:23:07.808Z,15.57
2023-04-28T03:25:40.827Z,15.69
2023-04-28T03:28:11.152Z,16.05
2023-04-28T03:30:40.820Z,16.52
2023-04-28T03:33:10.661Z,16.89
2023-04-28T03:35:40.438Z,16.22
2023-04-28T03:38:10.154Z,16.95
2023-04-28T03:40:42.577Z,16.86
2023-04-28T03:43:38.017Z,16.91
2023-04-28T03:46:30.663Z,17.21
2023-04-28T03:49:02.356Z,17.21
2023-04-28T03:51:33.318Z,17.47
2023-04-28T03:54:03.452Z,17.41
2023-04-28T03:56:36.413Z,18.01
2023-04-28T03:59:07.100Z,17.90
2023-04-28T04:01:36.802Z,18.52
2023-04-28T04:04:07.240Z,17.90
2023-04-28T04:06:37.454Z,19.14
2023-04-28T04:09:07.274Z,18.06
2023-04-28T04:11:39.578Z,18.40
2023-04-28T04:14:09.236Z,18.90
2023-04-28T04:16:39.195Z,18.87
2023-04-28T04:19:08.950Z,19.46
2023-04-28T04:21:43.976Z,19.22
2023-04-28T04:24:16.198Z,19.16
2023-04-28T04:26:49.004Z,19.51
2023-04-28T04:29:34.471Z,20.03
2023-04-28T04:32:09.571Z,20.05
2023-04-28T04:34:39.428Z,19.87
2023-04-28T04:37:09.108Z,20.68
2023-04-28T04:39:43.757Z,20.15
2023-04-28T04:42:25.514Z,19.99
2023-04-28T04:45:18.347Z,20.24
2023-04-28T04:47:48.603Z,20.49
2023-04-28T04:50:18.396Z,19.78
2023-04-28T04:52:48.545Z,20.89
2023-04-28T04:55:18.409Z,22.28
2023-04-28T04:57:51.028Z,22.92
2023-04-28T05:00:40.232Z,20.99
2023-04-28T05:03:12.096Z,20.46
2023-04-28T05:05:46.358Z,21.03
2023-04-28T05:08:22.368Z,20.25
2023-04-28T05:10:52.026Z,21.24
2023-04-28T05:13:25.273Z,20.93
2023-04-28T05:16:02.063Z,21.27
2023-04-28T05:18:51.250Z,20.49
2023-04-28T05:21:20.905Z,20.23
2023-04-28T05:23:51.372Z,20.58
2023-04-28T05:26:21.280Z,19.87
2023-04-28T05:28:53.733Z,20.90
2023-04-28T05:31:23.420Z,20.38
2023-04-28T05:33:53.807Z,20.20
2023-04-28T05:36:23.446Z,20.28
2023-04-28T05:38:53.612Z,20.18
2023-04-28T05:41:23.496Z,20.15
2023-04-28T05:43:56.030Z,20.20
2023-04-28T05:46:30.509Z,19.72
2023-04-28T05:49:02.377Z,19.70
2023-04-28T05:51:38.846Z,19.01
2023-04-28T05:54:08.589Z,18.80
2023-04-28T05:56:48.753Z,19.62
2023-04-28T05:59:21.108Z,19.47
2023-04-28T06:01:51.049Z,19.48
2023-04-28T06:04:21.158Z,18.83
2023-04-28T06:06:52.484Z,18.99
2023-04-28T06:09:22.169Z,18.31
2023-04-28T06:11:51.818Z,18.31
2023-04-28T06:14:25.232Z,18.50
2023-04-28T06:16:55.026Z,18.14
2023-04-28T06:19:25.287Z,17.94
2023-04-28T06:21:54.960Z,18.04
2023-04-28T06:24:24.725Z,18.08
2023-04-28T06:26:57.818Z,18.16
2023-04-28T06:29:30.085Z,16.88
2023-04-28T06:32:00.190Z,17.01
2023-04-28T06:34:31.299Z,16.63
2023-04-28T06:37:01.614Z,16.49
2023-04-28T06:39:31.849Z,16.41
2023-04-28T06:42:02.482Z,16.16
2023-04-28T06:44:37.331Z,16.19
2023-04-28T06:47:07.230Z,15.87
2023-04-28T06:49:37.034Z,15.95
2023-04-28T06:52:10.690Z,15.61
2023-04-28T06:54:40.547Z,16.44
2023-04-28T06:57:14.305Z,15.69
2023-04-28T06:59:46.789Z,16.00
2023-04-28T07:02:19.211Z,16.02
2023-04-28T07:04:49.614Z,16.20
2023-04-28T07:07:19.380Z,16.10
2023-04-28T07:09:49.040Z,15.27
2023-04-28T07:12:18.751Z,15.24
2023-04-28T07:14:51.809Z,15.25
2023-04-28T07:17:21.493Z,15.26
2023-04-28T07:19:52.637Z,15.38
2023-04-28T07:22:22.307Z,14.81
2023-04-28T07:24:52.001Z,14.99
2023-04-28T07:27:21.726Z,15.46
2023-04-28T07:29:53.983Z,14.96
2023-04-28T07:32:24.346Z,15.70
2023-04-28T07:34:54.142Z,14.95
2023-04-28T07:37:23.961Z,14.88
2023-04-28T07:39:53.641Z,16.14
2023-04-28T07:42:23.371Z,16.82
2023-04-28T07:44:56.394Z,15.28
2023-04-28T07:47:26.950Z,15.50
2023-04-28T07:49:56.769Z,14.74
2023-04-28T07:52:26.455Z,14.67
2023-04-28T07:54:56.139Z,14.50
2023-04-28T07:57:26.201Z,15.24
2023-04-28T07:59:58.467Z,15.19
2023-04-28T08:02:28.257Z,14.37
2023-04-28T08:04:58.520Z,13.51
2023-04-28T08:07:28.414Z,14.32
2023-04-28T08:09:58.092Z,13.84
2023-04-28T08:12:27.914Z,13.47
2023-04-28T08:15:00.233Z,14.19
2023-04-28T08:17:29.995Z,13.91
2023-04-28T08:19:59.665Z,14.21
2023-04-28T08:22:29.547Z,13.59
2023-04-28T08:24:59.200Z,13.51
2023-04-28T08:27:28.883Z,13.60
2023-04-28T08:30:01.138Z,13.62
2023-04-28T08:32:30.874Z,13.77
2023-04-28T08:35:00.615Z,13.64
2023-04-28T08:37:31.194Z,13.75
2023-04-28T08:40:05.017Z,14.04
2023-04-28T08:42:34.844Z,14.32
2023-04-28T08:45:08.100Z,14.61
2023-04-28T08:47:39.791Z,14.22
2023-04-28T08:50:12.635Z,14.11
2023-04-28T08:52:45.253Z,14.43
2023-04-28T08:55:17.169Z,14.79
2023-04-28T08:57:48.049Z,14.50
2023-04-28T09:00:20.722Z,14.83
2023-04-28T09:02:50.510Z,15.05
2023-04-28T09:05:20.397Z,15.73
2023-04-28T09:07:52.303Z,16.32
2023-04-28T09:10:23.322Z,15.84
2023-04-28T09:12:55.363Z,16.20
2023-04-28T09:15:33.909Z,16.39
2023-04-28T09:18:05.417Z,16.64
2023-04-28T09:20:36.007Z,17.02
2023-04-28T09:23:18.977Z,17.06
2023-04-28T09:26:12.555Z,17.53
2023-04-28T09:28:42.308Z,17.16
2023-04-28T09:31:28.364Z,18.29
2023-04-28T09:34:04.050Z,18.32
2023-04-28T09:36:33.872Z,18.42
2023-04-28T09:39:03.961Z,18.66
2023-04-28T09:41:41.153Z,18.98
2023-04-28T09:44:15.433Z,19.06
2023-04-28T09:46:46.286Z,18.96
2023-04-28T09:49:18.574Z,18.69
2023-04-28T09:51:48.238Z,19.09
2023-04-28T09:54:19.093Z,18.83
2023-04-28T09:56:50.416Z,18.35
2023-04-28T09:59:20.083Z,18.26
2023-04-28T10:01:50.779Z,17.37
2023-04-28T10:04:24.665Z,17.80
2023-04-28T10:06:55.077Z,17.49
2023-04-28T10:09:27.798Z,17.89
2023-04-28T10:11:57.569Z,16.25
2023-04-28T10:14:27.680Z,15.14
2023-04-28T10:16:59.263Z,15.10
2023-04-28T10:19:31.694Z,15.49
2023-04-28T10:22:11.766Z,15.47
2023-04-28T10:24:55.908Z,14.56
2023-04-28T10:27:32.985Z,14.76
2023-04-28T10:30:25.775Z,15.42
2023-04-28T10:33:21.447Z,14.14
2023-04-28T10:35:53.755Z,13.79
2023-04-28T10:38:24.348Z,14.72
2023-04-28T10:40:54.486Z,13.50
2023-04-28T10:43:38.121Z,14.32
2023-04-28T10:46:11.981Z,14.17
2023-04-28T10:49:08.809Z,13.78
2023-04-28T10:51:41.141Z,13.95
2023-04-28T10:54:19.570Z,13.77
2023-04-28T10:57:04.418Z,14.10
2023-04-28T10:59:34.083Z,13.45
2023-04-28T11:02:18.665Z,12.80
2023-04-28T11:05:03.432Z,14.51
2023-04-28T11:07:36.280Z,13.55
2023-04-28T11:10:05.972Z,12.41
2023-04-28T11:12:36.465Z,12.87
2023-04-28T11:15:14.805Z,12.44
2023-04-28T11:17:45.089Z,13.39
2023-04-28T11:20:17.355Z,14.47
2023-04-28T11:22:55.405Z,14.77
2023-04-28T11:25:25.081Z,15.39
2023-04-28T11:27:54.783Z,17.02
2023-04-28T11:30:26.692Z,16.60
2023-04-28T11:32:56.931Z,18.59
2023-04-28T11:35:27.233Z,20.55
2023-04-28T11:38:06.962Z,21.06
2023-04-28T11:40:36.731Z,22.65
2023-04-28T11:43:06.829Z,23.64
2023-04-28T11:45:36.639Z,24.40
2023-04-28T11:48:23.353Z,23.10
2023-04-28T11:50:53.113Z,23.17
2023-04-28T11:53:43.798Z,22.55
2023-04-28T11:56:13.954Z,21.24
2023-04-28T11:58:43.727Z,21.09
2023-04-28T12:01:15.548Z,21.21
2023-04-28T12:03:46.034Z,20.76
2023-04-28T12:06:19.950Z,20.18
2023-04-28T12:08:52.815Z,21.08
2023-04-28T12:11:22.937Z,20.33
2023-04-28T12:14:07.008Z,20.09
2023-04-28T12:16:43.981Z,19.55
2023-04-28T12:19:15.444Z,19.52
2023-04-28T12:21:45.616Z,18.88
2023-04-28T12:24:22.683Z,18.37
2023-04-28T12:26:52.478Z,19.05
2023-04-28T12:29:37.244Z,18.49
2023-04-28T12:32:07.252Z,18.41
2023-04-28T12:34:37.058Z,19.61
2023-04-28T12:37:07.385Z,20.05
2023-04-28T12:39:42.315Z,19.55
2023-04-28T12:42:12.352Z,18.27
2023-04-28T12:44:42.059Z,20.00
2023-04-28T12:47:12.842Z,19.85
2023-04-28T12:49:42.880Z,20.35
2023-04-28T12:52:13.107Z,19.80
2023-04-28T12:54:47.429Z,20.73
2023-04-28T12:57:17.637Z,20.18
2023-04-28T12:59:47.868Z,21.71
2023-04-28T13:02:17.668Z,20.85
2023-04-28T13:04:47.898Z,21.17
2023-04-28T13:07:18.002Z,21.17
2023-04-28T13:09:50.439Z,20.78
2023-04-28T13:12:20.077Z,20.27
2023-04-28T13:14:50.008Z,19.04
2023-04-28T13:17:19.711Z,19.84
2023-04-28T13:19:49.355Z,22.02
2023-04-28T13:22:19.689Z,24.35
2023-04-28T13:24:51.992Z,23.88
2023-04-28T13:27:21.672Z,22.50
2023-04-28T13:29:51.538Z,22.09
2023-04-28T13:32:21.164Z,21.61
2023-04-28T13:34:51.154Z,20.53
2023-04-28T13:37:21.056Z,20.07
2023-04-28T13:39:53.443Z,20.27
2023-04-28T13:42:23.149Z,18.50
2023-04-28T13:44:52.917Z,11.36
2023-04-28T13:47:22.655Z,7.11
2023-04-28T13:49:52.437Z,5.92
2023-04-28T13:52:22.735Z,5.83
2023-04-28T13:54:55.011Z,5.83
2023-04-28T13:57:24.822Z,6.38
2023-04-28T13:59:54.459Z,6.63
2023-04-28T14:02:24.754Z,6.76
2023-04-28T14:04:54.813Z,8.20
2023-04-28T14:07:24.685Z,8.58
2023-04-28T14:09:57.032Z,9.77
2023-04-28T14:12:27.123Z,10.14
2023-04-28T14:14:57.180Z,10.42
2023-04-28T14:17:28.602Z,9.90
2023-04-28T14:19:58.360Z,10.02
2023-04-28T14:22:28.045Z,10.05
2023-04-28T14:25:00.616Z,10.06
2023-04-28T14:27:31.050Z,9.49
2023-04-28T14:30:01.240Z,9.14
2023-04-28T14:32:31.150Z,9.10
2023-04-28T14:35:01.658Z,8.62
2023-04-28T14:37:31.501Z,8.47
2023-04-28T14:40:05.731Z,8.37
2023-04-28T14:42:37.419Z,8.20
2023-04-28T14:45:08.094Z,7.77
2023-04-28T14:47:38.905Z,7.65
2023-04-28T14:50:09.443Z,7.28
2023-04-28T14:52:39.499Z,6.92
2023-04-28T14:55:12.071Z,6.73
2023-04-28T14:57:42.266Z,7.90
2023-04-28T15:00:12.682Z,7.17
2023-04-28T15:02:42.742Z,7.04
2023-04-28T15:05:12.773Z,7.48
2023-04-28T15:07:42.645Z,7.41
2023-04-28T15:10:15.452Z,7.21
2023-04-28T15:12:45.369Z,7.84
2023-04-28T15:15:15.906Z,6.21
2023-04-28T15:17:46.058Z,6.26
2023-04-28T15:20:15.874Z,7.15
2023-04-28T15:22:46.647Z,6.21
2023-04-28T15:25:19.224Z,6.37
2023-04-28T15:27:50.405Z,5.88
2023-04-28T15:30:20.163Z,5.76
2023-04-28T15:32:51.937Z,5.97
2023-04-28T15:35:22.284Z,4.77
2023-04-28T15:37:52.312Z,5.02
2023-04-28T15:40:24.756Z,4.91
2023-04-28T15:42:55.037Z,5.07
2023-04-28T15:45:25.186Z,5.23
2023-04-28T15:47:55.301Z,5.22
2023-04-28T15:50:25.089Z,5.33
2023-04-28T15:52:54.750Z,5.70
2023-04-28T15:55:27.603Z,5.65
2023-04-28T15:57:57.252Z,5.56
2023-04-28T16:00:26.992Z,5.93
2023-04-28T16:02:56.829Z,6.16
2023-04-28T16:05:26.726Z,6.12
2023-04-28T16:07:56.384Z,6.55
2023-04-28T16:10:28.745Z,7.00
2023-04-28T16:12:59.016Z,7.08
2023-04-28T16:15:28.727Z,7.73
2023-04-28T16:17:58.861Z,7.93
2023-04-28T16:20:28.536Z,8.78
2023-04-28T16:22:58.170Z,8.65
2023-04-28T16:25:30.869Z,8.45
2023-04-28T16:28:00.681Z,9.00
2023-04-28T16:30:30.317Z,9.25
2023-04-28T16:33:00.233Z,8.85
2023-04-28T16:35:30.260Z,9.51
2023-04-28T16:37:59.919Z,9.32
2023-04-28T16:40:32.284Z,8.91
2023-04-28T16:43:02.002Z,9.50
2023-04-28T16:45:32.010Z,10.36
2023-04-28T16:48:01.868Z,11.09
2023-04-28T16:50:31.584Z,11.58
2023-04-28T16:53:01.438Z,9.33
2023-04-28T16:55:33.828Z,8.36
2023-04-28T16:58:03.481Z,8.83
2023-04-28T17:00:33.749Z,7.83
2023-04-28T17:03:03.630Z,7.78
2023-04-28T17:05:34.938Z,7.84
2023-04-28T17:08:04.645Z,8.31
2023-04-28T17:10:39.458Z,8.19
2023-04-28T17:13:10.161Z,7.29
2023-04-28T17:15:40.147Z,7.64
2023-04-28T17:18:09.954Z,7.70
2023-04-28T17:20:39.710Z,8.26
2023-04-28T17:23:09.438Z,8.57
2023-04-28T17:25:42.792Z,9.28
2023-04-28T17:28:12.951Z,8.70
2023-04-28T17:30:47.140Z,8.24
2023-04-28T17:33:17.618Z,8.38
2023-04-28T17:35:47.307Z,8.30
2023-04-28T17:38:17.090Z,8.52
2023-04-28T17:40:49.346Z,8.80
2023-04-28T17:43:20.492Z,9.10
2023-04-28T17:45:50.968Z,9.34
2023-04-28T17:48:20.666Z,10.18
2023-04-28T17:50:50.469Z,10.15
2023-04-28T17:53:22.829Z,10.33
2023-04-28T17:55:55.202Z,10.62
2023-04-28T17:58:24.875Z,10.50
2023-04-28T18:01:01.902Z,10.91
2023-04-28T18:03:32.561Z,10.80
2023-04-28T18:06:02.332Z,10.65
2023-04-28T18:08:31.948Z,11.47
2023-04-28T18:11:04.242Z,11.74
2023-04-28T18:13:33.958Z,11.88
2023-04-28T18:16:04.743Z,12.35
2023-04-28T18:18:35.708Z,12.17
2023-04-28T18:21:05.671Z,12.50
2023-04-28T18:23:35.901Z,12.69
2023-04-28T18:26:08.832Z,12.83
2023-04-28T18:28:39.260Z,13.13
2023-04-28T18:31:09.513Z,12.68
2023-04-28T18:33:39.210Z,12.62
2023-04-28T18:36:08.975Z,13.49
2023-04-28T18:38:38.620Z,14.29
2023-04-28T18:41:17.951Z,14.84
2023-04-28T18:43:48.121Z,14.42
2023-04-28T18:46:18.115Z,14.12
2023-04-28T18:48:48.850Z,14.25
2023-04-28T18:51:18.543Z,14.89
2023-04-28T18:53:48.811Z,14.47
2023-04-28T18:56:21.180Z,14.70
2023-04-28T18:58:50.839Z,14.19
2023-04-28T19:01:20.838Z,14.80
2023-04-28T19:03:51.814Z,14.76
2023-04-28T19:06:22.129Z,14.22
2023-04-28T19:08:51.806Z,10.63
2023-04-28T19:11:24.020Z,8.56
2023-04-28T19:13:54.376Z,6.73
2023-04-28T19:16:24.069Z,7.19
2023-04-28T19:18:53.743Z,7.49
2023-04-28T19:21:23.601Z,7.73
2023-04-28T19:23:53.567Z,7.48
2023-04-28T19:26:25.849Z,8.26
2023-04-28T19:28:55.536Z,7.37
2023-04-28T19:31:25.325Z,6.68
2023-04-28T19:33:55.106Z,6.50
2023-04-28T19:36:24.765Z,6.81
2023-04-28T19:38:54.621Z,6.89
2023-04-28T19:41:27.914Z,6.47
2023-04-28T19:43:57.708Z,6.71
2023-04-28T19:46:27.576Z,7.28
2023-04-28T19:48:57.373Z,7.85
2023-04-28T19:51:28.015Z,7.60
2023-04-28T19:53:57.879Z,7.69
2023-04-28T19:56:30.461Z,8.18
2023-04-28T19:59:00.182Z,7.54
2023-04-28T20:01:30.005Z,8.47
2023-04-28T20:04:00.780Z,8.39
2023-04-28T20:06:31.081Z,9.48
2023-04-28T20:09:00.713Z,9.13
2023-04-28T20:11:33.113Z,9.21
2023-04-28T20:14:02.932Z,10.58
2023-04-28T20:16:32.733Z,10.41
2023-04-28T20:19:02.786Z,10.53
2023-04-28T20:21:32.997Z,10.06
2023-04-28T20:24:02.904Z,10.33
2023-04-28T20:26:35.342Z,10.77
2023-04-28T20:29:07.208Z,10.31
2023-04-28T20:31:38.579Z,10.36
2023-04-28T20:34:10.061Z,10.82
2023-04-28T20:36:41.894Z,11.87
2023-04-28T20:39:12.417Z,13.24
2023-04-28T20:41:44.653Z,12.82
2023-04-28T20:44:14.496Z,13.86
2023-04-28T20:46:44.241Z,13.44
2023-04-28T20:49:14.322Z,13.87
2023-04-28T20:51:45.489Z,13.98
2023-04-28T20:54:15.535Z,14.49
2023-04-28T20:56:47.852Z,15.00
2023-04-28T20:59:17.569Z,15.84
2023-04-28T21:01:47.201Z,15.66
2023-04-28T21:04:17.202Z,16.77
2023-04-28T21:06:47.041Z,17.56
2023-04-28T21:09:16.928Z,17.07
2023-04-28T21:11:49.632Z,17.39
2023-04-28T21:14:19.508Z,17.77
2023-04-28T21:16:49.245Z,18.76
2023-04-28T21:19:19.035Z,19.44
2023-04-28T21:21:48.740Z,19.41
2023-04-28T21:24:18.478Z,19.09
2023-04-28T21:26:50.785Z,20.39
2023-04-28T21:29:20.749Z,20.74
2023-04-28T21:31:50.513Z,20.31
2023-04-28T21:34:20.166Z,20.70
2023-04-28T21:36:49.876Z,21.00
2023-04-28T21:39:19.493Z,21.79
2023-04-28T21:41:51.777Z,21.61
2023-04-28T21:44:21.787Z,22.73
2023-04-28T21:46:51.605Z,22.76
2023-04-28T21:49:21.265Z,23.07
2023-04-28T21:51:51.003Z,23.03
2023-04-28T21:54:20.654Z,22.71
2023-04-28T21:56:52.965Z,23.21
2023-04-28T21:59:22.706Z,23.48
2023-04-28T22:01:52.809Z,23.50
2023-04-28T22:04:22.700Z,24.02
2023-04-28T22:06:52.920Z,24.30
2023-04-28T22:09:22.631Z,25.27
2023-04-28T22:11:54.940Z,26.02
2023-04-28T22:14:39.400Z,26.74
2023-04-28T22:17:10.397Z,27.54
2023-04-28T22:19:40.120Z,28.84
2023-04-28T22:22:09.820Z,29.20
2023-04-28T22:24:39.711Z,30.00
2023-04-28T22:27:12.057Z,30.15
2023-04-28T22:29:41.713Z,30.66
2023-04-28T22:32:12.076Z,31.53
2023-04-28T22:34:41.901Z,32.59
2023-04-28T22:37:12.179Z,31.26
2023-04-28T22:39:41.903Z,33.84
2023-04-28T22:42:14.286Z,34.84
2023-04-28T22:44:44.045Z,35.34
2023-04-28T22:47:13.761Z,36.81
2023-04-28T22:49:43.672Z,38.47
2023-04-28T22:52:13.444Z,38.19
2023-04-28T22:54:43.483Z,38.67
2023-04-28T22:57:16.108Z,38.81
2023-04-28T22:59:45.912Z,39.41
2023-04-28T23:02:15.670Z,38.92
2023-04-28T23:04:46.031Z,40.29
2023-04-28T23:07:16.022Z,45.32
2023-04-28T23:09:45.779Z,47.64
2023-04-28T23:12:18.161Z,50.05
2023-04-28T23:14:47.934Z,50.14
2023-04-28T23:17:17.648Z,48.48
2023-04-28T23:19:47.418Z,47.62
2023-04-28T23:22:17.278Z,48.13
2023-04-28T23:24:47.870Z,48.58
2023-04-28T23:27:20.647Z,50.41
2023-04-28T23:29:50.639Z,48.67
2023-04-28T23:32:20.565Z,49.78
2023-04-28T23:34:50.331Z,49.51
2023-04-28T23:37:20.103Z,49.02
2023-04-28T23:39:50.158Z,49.07
2023-04-28T23:42:23.439Z,45.47
2023-04-28T23:44:53.358Z,43.83
2023-04-28T23:47:23.183Z,43.32
2023-04-28T23:49:53.104Z,43.04
2023-04-28T23:52:23.033Z,43.47
2023-04-28T23:54:52.796Z,43.81
2023-04-28T23:57:25.230Z,42.06
2023-04-28T23:59:54.992Z,42.48
